sensor_id;sensor_type;location;lat;lon;timestamp;temperature;humidity
32660;DHT22;19064;47.912;12.308;2023-03-05T00:00:30;0.80;99.90
32660;DHT22;19064;47.912;12.308;2023-03-05T00:02:58;0.80;99.90
32660;DHT22;19064;47.912;12.308;2023-03-05T00:05:25;0.80;99.90
32660;DHT22;19064;47.912;12.308;2023-03-05T00:07:53;0.80;99.90
32660;DHT22;19064;47.912;12.308;2023-03-05T00:10:21;0.80;99.90
32660;DHT22;19064;47.912;12.308;2023-03-05T00:12:49;0.80;99.90
32660;DHT22;19064;47.912;12.308;2023-03-05T00:15:18;0.70;99.90
32660;DHT22;19064;47.912;12.308;2023-03-05T00:17:46;0.70;99.90
32660;DHT22;19064;47.912;12.308;2023-03-05T00:20:14;0.70;99.90
32660;DHT22;19064;47.912;12.308;2023-03-05T00:22:42;0.70;99.90
32660;DHT22;19064;47.912;12.308;2023-03-05T00:25:10;0.60;99.90
32660;DHT22;19064;47.912;12.308;2023-03-05T00:27:40;0.60;99.90
32660;DHT22;19064;47.912;12.308;2023-03-05T00:30:10;0.70;99.90
32660;DHT22;19064;47.912;12.308;2023-03-05T00:32:39;0.70;99.90
32660;DHT22;19064;47.912;12.308;2023-03-05T00:35:08;0.70;99.90
32660;DHT22;19064;47.912;12.308;2023-03-05T00:37:36;0.70;99.90
32660;DHT22;19064;47.912;12.308;2023-03-05T00:40:07;0.70;99.90
32660;DHT22;19064;47.912;12.308;2023-03-05T00:42:35;0.70;99.90
32660;DHT22;19064;47.912;12.308;2023-03-05T00:45:04;0.70;99.90
32660;DHT22;19064;47.912;12.308;2023-03-05T00:47:33;0.70;99.90
32660;DHT22;19064;47.912;12.308;2023-03-05T00:50:02;0.60;99.90
32660;DHT22;19064;47.912;12.308;2023-03-05T00:52:31;0.70;99.90
32660;DHT22;19064;47.912;12.308;2023-03-05T00:55:00;0.70;99.90
32660;DHT22;19064;47.912;12.308;2023-03-05T00:57:27;0.70;99.90
32660;DHT22;19064;47.912;12.308;2023-03-05T00:59:58;0.70;99.90
32660;DHT22;19064;47.912;12.308;2023-03-05T01:02:25;0.70;99.90
32660;DHT22;19064;47.912;12.308;2023-03-05T01:04:53;0.70;99.90
32660;DHT22;19064;47.912;12.308;2023-03-05T01:07:22;0.70;99.90
32660;DHT22;19064;47.912;12.308;2023-03-05T01:09:50;0.70;99.90
32660;DHT22;19064;47.912;12.308;2023-03-05T01:12:17;0.70;99.90
32660;DHT22;19064;47.912;12.308;2023-03-05T01:14:45;0.70;99.90
32660;DHT22;19064;47.912;12.308;2023-03-05T01:17:15;0.60;99.90
32660;DHT22;19064;47.912;12.308;2023-03-05T01:19:43;0.70;99.90
32660;DHT22;19064;47.912;12.308;2023-03-05T01:22:13;0.60;99.90
32660;DHT22;19064;47.912;12.308;2023-03-05T01:24:44;0.70;99.90
32660;DHT22;19064;47.912;12.308;2023-03-05T01:27:12;0.70;99.90
32660;DHT22;19064;47.912;12.308;2023-03-05T01:29:40;0.70;99.90
32660;DHT22;19064;47.912;12.308;2023-03-05T01:32:08;0.70;99.90
32660;DHT22;19064;47.912;12.308;2023-03-05T01:34:35;0.60;99.90
32660;DHT22;19064;47.912;12.308;2023-03-05T01:37:03;0.60;99.90
32660;DHT22;19064;47.912;12.308;2023-03-05T01:39:31;0.60;99.90
32660;DHT22;19064;47.912;12.308;2023-03-05T01:42:00;0.60;99.90
32660;DHT22;19064;47.912;12.308;2023-03-05T01:44:29;0.70;99.90
32660;DHT22;19064;47.912;12.308;2023-03-05T01:46:59;0.80;99.90
32660;DHT22;19064;47.912;12.308;2023-03-05T01:49:28;0.70;99.90
32660;DHT22;19064;47.912;12.308;2023-03-05T01:51:57;0.70;99.90
32660;DHT22;19064;47.912;12.308;2023-03-05T01:54:27;0.70;99.90
32660;DHT22;19064;47.912;12.308;2023-03-05T01:57:01;0.70;99.90
32660;DHT22;19064;47.912;12.308;2023-03-05T01:59:31;0.70;99.90
32660;DHT22;19064;47.912;12.308;2023-03-05T02:01:59;0.70;99.90
32660;DHT22;19064;47.912;12.308;2023-03-05T02:04:29;0.80;99.90
32660;DHT22;19064;47.912;12.308;2023-03-05T02:06:59;0.80;99.90
32660;DHT22;19064;47.912;12.308;2023-03-05T02:09:27;0.90;99.90
32660;DHT22;19064;47.912;12.308;2023-03-05T02:11:58;0.90;99.90
32660;DHT22;19064;47.912;12.308;2023-03-05T02:14:37;0.80;99.90
32660;DHT22;19064;47.912;12.308;2023-03-05T02:17:07;0.90;99.90
32660;DHT22;19064;47.912;12.308;2023-03-05T02:19:46;0.80;99.90
32660;DHT22;19064;47.912;12.308;2023-03-05T02:22:19;0.80;99.90
32660;DHT22;19064;47.912;12.308;2023-03-05T02:24:47;0.80;99.90
32660;DHT22;19064;47.912;12.308;2023-03-05T02:27:15;0.70;99.90
32660;DHT22;19064;47.912;12.308;2023-03-05T02:29:44;0.70;99.90
32660;DHT22;19064;47.912;12.308;2023-03-05T02:32:12;0.80;99.90
32660;DHT22;19064;47.912;12.308;2023-03-05T02:34:40;0.70;99.90
32660;DHT22;19064;47.912;12.308;2023-03-05T02:37:10;0.70;99.90
32660;DHT22;19064;47.912;12.308;2023-03-05T02:39:40;0.70;99.90
32660;DHT22;19064;47.912;12.308;2023-03-05T02:42:08;0.70;99.90
32660;DHT22;19064;47.912;12.308;2023-03-05T02:44:36;0.70;99.90
32660;DHT22;19064;47.912;12.308;2023-03-05T02:47:03;0.70;99.90
32660;DHT22;19064;47.912;12.308;2023-03-05T02:49:32;0.70;99.90
32660;DHT22;19064;47.912;12.308;2023-03-05T02:52:03;0.70;99.90
32660;DHT22;19064;47.912;12.308;2023-03-05T02:54:30;0.60;99.90
32660;DHT22;19064;47.912;12.308;2023-03-05T02:56:59;0.70;99.90
32660;DHT22;19064;47.912;12.308;2023-03-05T02:59:27;0.80;99.90
32660;DHT22;19064;47.912;12.308;2023-03-05T03:01:55;0.80;99.90
32660;DHT22;19064;47.912;12.308;2023-03-05T03:04:23;0.70;99.90
32660;DHT22;19064;47.912;12.308;2023-03-05T03:06:51;0.80;99.90
32660;DHT22;19064;47.912;12.308;2023-03-05T03:09:19;0.80;99.90
32660;DHT22;19064;47.912;12.308;2023-03-05T03:11:47;0.80;99.90
32660;DHT22;19064;47.912;12.308;2023-03-05T03:14:16;0.90;99.90
32660;DHT22;19064;47.912;12.308;2023-03-05T03:16:43;0.80;99.90
32660;DHT22;19064;47.912;12.308;2023-03-05T03:19:11;0.90;99.90
32660;DHT22;19064;47.912;12.308;2023-03-05T03:21:39;0.80;99.90
32660;DHT22;19064;47.912;12.308;2023-03-05T03:24:07;0.90;99.90
32660;DHT22;19064;47.912;12.308;2023-03-05T03:26:35;0.80;99.90
32660;DHT22;19064;47.912;12.308;2023-03-05T03:29:03;0.80;99.90
32660;DHT22;19064;47.912;12.308;2023-03-05T03:31:35;0.90;99.90
32660;DHT22;19064;47.912;12.308;2023-03-05T03:34:06;0.90;99.90
32660;DHT22;19064;47.912;12.308;2023-03-05T03:36:34;0.90;99.90
32660;DHT22;19064;47.912;12.308;2023-03-05T03:39:02;0.80;99.90
32660;DHT22;19064;47.912;12.308;2023-03-05T03:41:31;0.90;99.90
32660;DHT22;19064;47.912;12.308;2023-03-05T03:44:00;0.90;99.90
32660;DHT22;19064;47.912;12.308;2023-03-05T03:46:29;0.70;99.90
32660;DHT22;19064;47.912;12.308;2023-03-05T03:49:00;0.70;99.90
32660;DHT22;19064;47.912;12.308;2023-03-05T03:51:28;0.70;99.90
32660;DHT22;19064;47.912;12.308;2023-03-05T03:53:57;0.80;99.90
32660;DHT22;19064;47.912;12.308;2023-03-05T03:56:25;0.80;99.90
32660;DHT22;19064;47.912;12.308;2023-03-05T03:58:53;0.70;99.90
32660;DHT22;19064;47.912;12.308;2023-03-05T04:01:21;0.70;99.90
32660;DHT22;19064;47.912;12.308;2023-03-05T04:03:48;0.60;99.90
32660;DHT22;19064;47.912;12.308;2023-03-05T04:06:17;0.60;99.90
32660;DHT22;19064;47.912;12.308;2023-03-05T04:08:45;0.60;99.90
32660;DHT22;19064;47.912;12.308;2023-03-05T04:11:13;0.60;99.90
32660;DHT22;19064;47.912;12.308;2023-03-05T04:13:41;0.80;99.90
32660;DHT22;19064;47.912;12.308;2023-03-05T04:16:09;0.90;99.90
32660;DHT22;19064;47.912;12.308;2023-03-05T04:18:37;1.00;99.90
32660;DHT22;19064;47.912;12.308;2023-03-05T04:21:04;1.00;99.90
32660;DHT22;19064;47.912;12.308;2023-03-05T04:23:33;1.00;99.90
32660;DHT22;19064;47.912;12.308;2023-03-05T04:26:02;0.90;99.90
32660;DHT22;19064;47.912;12.308;2023-03-05T04:28:30;1.00;99.90
32660;DHT22;19064;47.912;12.308;2023-03-05T04:30:56;1.00;99.90
32660;DHT22;19064;47.912;12.308;2023-03-05T04:33:24;1.00;99.90
32660;DHT22;19064;47.912;12.308;2023-03-05T04:35:52;1.00;99.90
32660;DHT22;19064;47.912;12.308;2023-03-05T04:38:19;0.90;99.90
32660;DHT22;19064;47.912;12.308;2023-03-05T04:40:49;0.90;99.90
32660;DHT22;19064;47.912;12.308;2023-03-05T04:43:16;0.90;99.90
32660;DHT22;19064;47.912;12.308;2023-03-05T04:45:45;0.80;99.90
32660;DHT22;19064;47.912;12.308;2023-03-05T04:48:12;0.90;99.90
32660;DHT22;19064;47.912;12.308;2023-03-05T04:50:40;0.80;99.90
32660;DHT22;19064;47.912;12.308;2023-03-05T04:53:08;0.90;99.90
32660;DHT22;19064;47.912;12.308;2023-03-05T04:55:35;0.90;99.90
32660;DHT22;19064;47.912;12.308;2023-03-05T04:58:05;0.80;99.90
32660;DHT22;19064;47.912;12.308;2023-03-05T05:00:33;0.80;99.90
32660;DHT22;19064;47.912;12.308;2023-03-05T05:03:00;0.90;99.90
32660;DHT22;19064;47.912;12.308;2023-03-05T05:05:28;0.90;99.90
32660;DHT22;19064;47.912;12.308;2023-03-05T05:07:57;0.90;99.90
32660;DHT22;19064;47.912;12.308;2023-03-05T05:10:25;0.80;99.90
32660;DHT22;19064;47.912;12.308;2023-03-05T05:12:53;0.60;99.90
32660;DHT22;19064;47.912;12.308;2023-03-05T05:15:22;0.70;99.90
32660;DHT22;19064;47.912;12.308;2023-03-05T05:17:50;0.80;99.90
32660;DHT22;19064;47.912;12.308;2023-03-05T05:20:19;0.80;99.90
32660;DHT22;19064;47.912;12.308;2023-03-05T05:22:47;0.60;99.90
32660;DHT22;19064;47.912;12.308;2023-03-05T05:25:15;0.70;99.90
32660;DHT22;19064;47.912;12.308;2023-03-05T05:27:43;0.70;99.90
32660;DHT22;19064;47.912;12.308;2023-03-05T05:30:11;0.70;99.90
32660;DHT22;19064;47.912;12.308;2023-03-05T05:32:40;0.80;99.90
32660;DHT22;19064;47.912;12.308;2023-03-05T05:35:09;0.80;99.90
32660;DHT22;19064;47.912;12.308;2023-03-05T05:37:37;0.90;99.90
32660;DHT22;19064;47.912;12.308;2023-03-05T05:40:05;0.80;99.90
32660;DHT22;19064;47.912;12.308;2023-03-05T05:42:34;0.70;99.90
32660;DHT22;19064;47.912;12.308;2023-03-05T05:45:02;0.70;99.90
32660;DHT22;19064;47.912;12.308;2023-03-05T05:47:30;0.70;99.90
32660;DHT22;19064;47.912;12.308;2023-03-05T05:49:59;0.50;99.90
32660;DHT22;19064;47.912;12.308;2023-03-05T05:52:27;0.60;99.90
32660;DHT22;19064;47.912;12.308;2023-03-05T05:54:55;0.70;99.90
32660;DHT22;19064;47.912;12.308;2023-03-05T05:57:23;0.80;99.90
32660;DHT22;19064;47.912;12.308;2023-03-05T05:59:51;0.70;99.90
32660;DHT22;19064;47.912;12.308;2023-03-05T06:02:19;0.80;99.90
32660;DHT22;19064;47.912;12.308;2023-03-05T06:04:49;0.80;99.90
32660;DHT22;19064;47.912;12.308;2023-03-05T06:07:22;0.80;99.90
32660;DHT22;19064;47.912;12.308;2023-03-05T06:09:52;0.90;99.90
32660;DHT22;19064;47.912;12.308;2023-03-05T06:12:20;1.00;99.90
32660;DHT22;19064;47.912;12.308;2023-03-05T06:14:48;1.00;99.90
32660;DHT22;19064;47.912;12.308;2023-03-05T06:17:15;1.00;99.90
32660;DHT22;19064;47.912;12.308;2023-03-05T06:19:43;1.00;99.90
32660;DHT22;19064;47.912;12.308;2023-03-05T06:22:11;0.90;99.90
32660;DHT22;19064;47.912;12.308;2023-03-05T06:24:40;1.00;99.90
32660;DHT22;19064;47.912;12.308;2023-03-05T06:27:08;1.00;99.90
32660;DHT22;19064;47.912;12.308;2023-03-05T06:29:35;1.00;99.90
32660;DHT22;19064;47.912;12.308;2023-03-05T06:32:03;1.10;99.90
32660;DHT22;19064;47.912;12.308;2023-03-05T06:34:31;1.20;99.90
32660;DHT22;19064;47.912;12.308;2023-03-05T06:37:01;1.00;99.90
32660;DHT22;19064;47.912;12.308;2023-03-05T06:39:28;1.00;99.90
32660;DHT22;19064;47.912;12.308;2023-03-05T06:41:58;1.10;99.90
32660;DHT22;19064;47.912;12.308;2023-03-05T06:44:26;1.10;99.90
32660;DHT22;19064;47.912;12.308;2023-03-05T06:46:54;1.10;99.90
32660;DHT22;19064;47.912;12.308;2023-03-05T06:49:21;1.20;99.90
32660;DHT22;19064;47.912;12.308;2023-03-05T06:51:49;1.30;99.90
32660;DHT22;19064;47.912;12.308;2023-03-05T06:54:17;1.30;99.90
32660;DHT22;19064;47.912;12.308;2023-03-05T06:56:45;1.20;99.90
32660;DHT22;19064;47.912;12.308;2023-03-05T06:59:18;1.30;99.90
32660;DHT22;19064;47.912;12.308;2023-03-05T07:01:47;1.30;99.90
32660;DHT22;19064;47.912;12.308;2023-03-05T07:04:14;1.30;99.90
32660;DHT22;19064;47.912;12.308;2023-03-05T07:06:43;1.40;99.90
32660;DHT22;19064;47.912;12.308;2023-03-05T07:09:12;1.40;99.90
32660;DHT22;19064;47.912;12.308;2023-03-05T07:11:43;1.40;99.90
32660;DHT22;19064;47.912;12.308;2023-03-05T07:14:11;1.40;99.90
32660;DHT22;19064;47.912;12.308;2023-03-05T07:16:40;1.40;99.90
32660;DHT22;19064;47.912;12.308;2023-03-05T07:19:07;1.40;99.90
32660;DHT22;19064;47.912;12.308;2023-03-05T07:21:36;1.30;99.90
32660;DHT22;19064;47.912;12.308;2023-03-05T07:24:04;1.40;99.90
32660;DHT22;19064;47.912;12.308;2023-03-05T07:26:32;1.50;99.90
32660;DHT22;19064;47.912;12.308;2023-03-05T07:29:00;1.50;99.90
32660;DHT22;19064;47.912;12.308;2023-03-05T07:31:28;1.50;99.90
32660;DHT22;19064;47.912;12.308;2023-03-05T07:34:02;1.50;99.90
32660;DHT22;19064;47.912;12.308;2023-03-05T07:36:33;1.50;99.90
32660;DHT22;19064;47.912;12.308;2023-03-05T07:39:00;1.60;99.90
32660;DHT22;19064;47.912;12.308;2023-03-05T07:41:27;1.60;99.90
32660;DHT22;19064;47.912;12.308;2023-03-05T07:43:58;1.60;99.90
32660;DHT22;19064;47.912;12.308;2023-03-05T07:46:26;1.60;99.90
32660;DHT22;19064;47.912;12.308;2023-03-05T07:48:55;1.40;99.90
32660;DHT22;19064;47.912;12.308;2023-03-05T07:51:24;1.50;99.90
32660;DHT22;19064;47.912;12.308;2023-03-05T07:53:53;1.60;99.90
32660;DHT22;19064;47.912;12.308;2023-03-05T07:56:21;1.60;99.90
32660;DHT22;19064;47.912;12.308;2023-03-05T07:58:49;1.70;99.90
32660;DHT22;19064;47.912;12.308;2023-03-05T08:01:17;1.70;99.90
32660;DHT22;19064;47.912;12.308;2023-03-05T08:03:45;1.80;99.90
32660;DHT22;19064;47.912;12.308;2023-03-05T08:06:13;1.80;99.90
32660;DHT22;19064;47.912;12.308;2023-03-05T08:08:42;1.80;99.90
32660;DHT22;19064;47.912;12.308;2023-03-05T08:11:10;1.80;99.90
32660;DHT22;19064;47.912;12.308;2023-03-05T08:13:39;1.90;99.90
32660;DHT22;19064;47.912;12.308;2023-03-05T08:16:08;1.90;99.90
32660;DHT22;19064;47.912;12.308;2023-03-05T08:18:39;1.90;99.90
32660;DHT22;19064;47.912;12.308;2023-03-05T08:21:13;1.90;99.90
32660;DHT22;19064;47.912;12.308;2023-03-05T08:23:47;1.90;99.90
32660;DHT22;19064;47.912;12.308;2023-03-05T08:26:16;1.80;99.90
32660;DHT22;19064;47.912;12.308;2023-03-05T08:28:47;1.90;99.90
32660;DHT22;19064;47.912;12.308;2023-03-05T08:31:15;2.00;99.90
32660;DHT22;19064;47.912;12.308;2023-03-05T08:33:46;2.00;99.90
32660;DHT22;19064;47.912;12.308;2023-03-05T08:36:14;2.00;99.90
32660;DHT22;19064;47.912;12.308;2023-03-05T08:38:47;2.10;99.90
32660;DHT22;19064;47.912;12.308;2023-03-05T08:41:17;2.20;99.90
32660;DHT22;19064;47.912;12.308;2023-03-05T08:43:48;2.20;99.90
32660;DHT22;19064;47.912;12.308;2023-03-05T08:46:16;2.30;99.90
32660;DHT22;19064;47.912;12.308;2023-03-05T08:48:46;2.40;99.90
32660;DHT22;19064;47.912;12.308;2023-03-05T08:51:20;2.40;99.90
32660;DHT22;19064;47.912;12.308;2023-03-05T08:53:50;2.40;99.90
32660;DHT22;19064;47.912;12.308;2023-03-05T08:56:18;2.40;99.90
32660;DHT22;19064;47.912;12.308;2023-03-05T08:58:46;2.50;99.90
32660;DHT22;19064;47.912;12.308;2023-03-05T09:01:14;2.60;99.90
32660;DHT22;19064;47.912;12.308;2023-03-05T09:03:42;2.60;99.90
32660;DHT22;19064;47.912;12.308;2023-03-05T09:06:10;2.70;99.90
32660;DHT22;19064;47.912;12.308;2023-03-05T09:08:38;2.80;99.90
32660;DHT22;19064;47.912;12.308;2023-03-05T09:11:07;2.80;99.90
32660;DHT22;19064;47.912;12.308;2023-03-05T09:13:35;2.90;99.90
32660;DHT22;19064;47.912;12.308;2023-03-05T09:16:04;2.90;99.90
32660;DHT22;19064;47.912;12.308;2023-03-05T09:18:32;2.90;99.90
32660;DHT22;19064;47.912;12.308;2023-03-05T09:21:03;3.00;99.90
32660;DHT22;19064;47.912;12.308;2023-03-05T09:23:31;2.90;99.90
32660;DHT22;19064;47.912;12.308;2023-03-05T09:25:59;2.90;99.90
32660;DHT22;19064;47.912;12.308;2023-03-05T09:28:29;3.00;99.90
32660;DHT22;19064;47.912;12.308;2023-03-05T09:31:00;3.00;99.90
32660;DHT22;19064;47.912;12.308;2023-03-05T09:33:28;3.00;99.90
32660;DHT22;19064;47.912;12.308;2023-03-05T09:35:56;3.10;99.90
32660;DHT22;19064;47.912;12.308;2023-03-05T09:38:24;3.10;99.90
32660;DHT22;19064;47.912;12.308;2023-03-05T09:40:53;3.10;99.90
32660;DHT22;19064;47.912;12.308;2023-03-05T09:43:33;3.20;99.90
32660;DHT22;19064;47.912;12.308;2023-03-05T09:46:10;3.10;99.90
32660;DHT22;19064;47.912;12.308;2023-03-05T09:48:45;3.00;99.90
32660;DHT22;19064;47.912;12.308;2023-03-05T09:51:15;3.10;99.90
32660;DHT22;19064;47.912;12.308;2023-03-05T09:53:46;3.20;99.90
32660;DHT22;19064;47.912;12.308;2023-03-05T09:56:15;3.20;99.90
32660;DHT22;19064;47.912;12.308;2023-03-05T09:58:45;3.20;99.90
32660;DHT22;19064;47.912;12.308;2023-03-05T10:01:14;3.30;99.90
32660;DHT22;19064;47.912;12.308;2023-03-05T10:03:53;3.40;99.90
32660;DHT22;19064;47.912;12.308;2023-03-05T10:06:23;3.40;99.90
32660;DHT22;19064;47.912;12.308;2023-03-05T10:08:52;3.40;99.90
32660;DHT22;19064;47.912;12.308;2023-03-05T10:14:11;3.40;99.90
32660;DHT22;19064;47.912;12.308;2023-03-05T10:19:31;3.40;99.90
32660;DHT22;19064;47.912;12.308;2023-03-05T10:22:08;3.40;99.90
32660;DHT22;19064;47.912;12.308;2023-03-05T10:24:40;3.40;99.90
32660;DHT22;19064;47.912;12.308;2023-03-05T10:27:13;3.40;99.90
32660;DHT22;19064;47.912;12.308;2023-03-05T10:29:50;3.40;99.90
32660;DHT22;19064;47.912;12.308;2023-03-05T10:32:31;3.40;99.90
32660;DHT22;19064;47.912;12.308;2023-03-05T10:35:09;3.50;99.90
32660;DHT22;19064;47.912;12.308;2023-03-05T10:37:52;3.50;99.90
32660;DHT22;19064;47.912;12.308;2023-03-05T10:40:24;3.50;99.90
32660;DHT22;19064;47.912;12.308;2023-03-05T10:42:55;3.40;99.90
32660;DHT22;19064;47.912;12.308;2023-03-05T10:45:27;3.40;99.90
32660;DHT22;19064;47.912;12.308;2023-03-05T10:47:58;3.40;99.90
32660;DHT22;19064;47.912;12.308;2023-03-05T10:50:27;3.50;99.90
32660;DHT22;19064;47.912;12.308;2023-03-05T10:53:06;3.50;99.90
32660;DHT22;19064;47.912;12.308;2023-03-05T10:55:39;3.60;99.90
32660;DHT22;19064;47.912;12.308;2023-03-05T10:58:11;3.70;99.90
32660;DHT22;19064;47.912;12.308;2023-03-05T11:00:40;3.80;99.90
32660;DHT22;19064;47.912;12.308;2023-03-05T11:03:23;3.90;99.90
32660;DHT22;19064;47.912;12.308;2023-03-05T11:05:58;3.80;99.90
32660;DHT22;19064;47.912;12.308;2023-03-05T11:08:29;3.80;99.90
32660;DHT22;19064;47.912;12.308;2023-03-05T11:11:02;3.80;99.90
32660;DHT22;19064;47.912;12.308;2023-03-05T11:13:31;4.00;99.90
32660;DHT22;19064;47.912;12.308;2023-03-05T11:16:19;4.00;99.90
32660;DHT22;19064;47.912;12.308;2023-03-05T11:18:47;4.00;99.90
32660;DHT22;19064;47.912;12.308;2023-03-05T11:21:20;4.10;99.90
32660;DHT22;19064;47.912;12.308;2023-03-05T11:26:47;4.00;99.90
32660;DHT22;19064;47.912;12.308;2023-03-05T11:29:17;4.10;99.90
32660;DHT22;19064;47.912;12.308;2023-03-05T11:31:47;4.20;99.90
32660;DHT22;19064;47.912;12.308;2023-03-05T11:34:22;4.20;99.90
32660;DHT22;19064;47.912;12.308;2023-03-05T11:39:33;4.00;99.90
32660;DHT22;19064;47.912;12.308;2023-03-05T11:42:04;4.00;99.90
32660;DHT22;19064;47.912;12.308;2023-03-05T11:44:34;4.10;99.90
32660;DHT22;19064;47.912;12.308;2023-03-05T11:47:12;4.20;99.90
32660;DHT22;19064;47.912;12.308;2023-03-05T11:49:44;4.30;99.90
32660;DHT22;19064;47.912;12.308;2023-03-05T11:52:13;4.30;99.90
32660;DHT22;19064;47.912;12.308;2023-03-05T11:54:46;4.20;99.90
32660;DHT22;19064;47.912;12.308;2023-03-05T11:57:16;4.10;99.90
32660;DHT22;19064;47.912;12.308;2023-03-05T11:59:45;4.10;99.90
32660;DHT22;19064;47.912;12.308;2023-03-05T12:02:15;4.20;99.90
32660;DHT22;19064;47.912;12.308;2023-03-05T12:04:44;4.20;99.90
32660;DHT22;19064;47.912;12.308;2023-03-05T12:07:12;4.20;99.90
32660;DHT22;19064;47.912;12.308;2023-03-05T12:09:42;4.30;99.90
32660;DHT22;19064;47.912;12.308;2023-03-05T12:12:17;4.40;99.90
32660;DHT22;19064;47.912;12.308;2023-03-05T12:14:55;4.60;99.90
32660;DHT22;19064;47.912;12.308;2023-03-05T12:17:26;4.60;99.90
32660;DHT22;19064;47.912;12.308;2023-03-05T12:19:56;4.60;99.90
32660;DHT22;19064;47.912;12.308;2023-03-05T12:22:25;4.70;99.90
32660;DHT22;19064;47.912;12.308;2023-03-05T12:27:43;4.80;99.90
32660;DHT22;19064;47.912;12.308;2023-03-05T12:32:56;4.90;99.90
32660;DHT22;19064;47.912;12.308;2023-03-05T12:35:26;4.90;99.90
32660;DHT22;19064;47.912;12.308;2023-03-05T12:40:43;4.80;99.90
32660;DHT22;19064;47.912;12.308;2023-03-05T12:43:29;4.70;99.90
32660;DHT22;19064;47.912;12.308;2023-03-05T12:48:51;4.70;99.90
32660;DHT22;19064;47.912;12.308;2023-03-05T12:51:29;4.70;99.90
32660;DHT22;19064;47.912;12.308;2023-03-05T12:53:58;4.50;99.90
32660;DHT22;19064;47.912;12.308;2023-03-05T12:56:44;4.50;99.90
32660;DHT22;19064;47.912;12.308;2023-03-05T12:59:14;4.40;99.90
32660;DHT22;19064;47.912;12.308;2023-03-05T13:01:43;4.40;99.90
32660;DHT22;19064;47.912;12.308;2023-03-05T13:04:15;4.40;99.90
32660;DHT22;19064;47.912;12.308;2023-03-05T13:06:45;4.40;99.90
32660;DHT22;19064;47.912;12.308;2023-03-05T13:09:15;4.50;99.90
32660;DHT22;19064;47.912;12.308;2023-03-05T13:11:44;4.70;99.90
32660;DHT22;19064;47.912;12.308;2023-03-05T13:19:48;4.70;99.90
32660;DHT22;19064;47.912;12.308;2023-03-05T13:22:16;4.70;99.90
32660;DHT22;19064;47.912;12.308;2023-03-05T13:24:44;4.70;99.90
32660;DHT22;19064;47.912;12.308;2023-03-05T13:27:23;4.60;99.90
32660;DHT22;19064;47.912;12.308;2023-03-05T13:29:53;4.50;99.90
32660;DHT22;19064;47.912;12.308;2023-03-05T13:32:22;4.50;99.90
32660;DHT22;19064;47.912;12.308;2023-03-05T13:34:53;4.50;99.90
32660;DHT22;19064;47.912;12.308;2023-03-05T13:37:22;4.50;99.90
32660;DHT22;19064;47.912;12.308;2023-03-05T13:39:53;4.40;99.90
32660;DHT22;19064;47.912;12.308;2023-03-05T13:42:23;4.50;99.90
32660;DHT22;19064;47.912;12.308;2023-03-05T13:44:54;4.50;99.90
32660;DHT22;19064;47.912;12.308;2023-03-05T13:47:23;4.60;99.90
32660;DHT22;19064;47.912;12.308;2023-03-05T13:49:55;4.60;99.90
32660;DHT22;19064;47.912;12.308;2023-03-05T13:52:25;4.70;99.90
32660;DHT22;19064;47.912;12.308;2023-03-05T13:54:54;4.70;99.90
32660;DHT22;19064;47.912;12.308;2023-03-05T13:57:34;4.70;99.90
32660;DHT22;19064;47.912;12.308;2023-03-05T14:00:03;4.70;99.90
32660;DHT22;19064;47.912;12.308;2023-03-05T14:02:31;4.60;99.90
32660;DHT22;19064;47.912;12.308;2023-03-05T14:05:11;4.60;99.90
32660;DHT22;19064;47.912;12.308;2023-03-05T14:07:40;4.60;99.90
32660;DHT22;19064;47.912;12.308;2023-03-05T14:10:22;4.50;99.90
32660;DHT22;19064;47.912;12.308;2023-03-05T14:12:52;4.40;99.90
32660;DHT22;19064;47.912;12.308;2023-03-05T14:15:23;4.30;99.90
32660;DHT22;19064;47.912;12.308;2023-03-05T14:17:52;4.30;99.90
32660;DHT22;19064;47.912;12.308;2023-03-05T14:20:22;4.30;99.90
32660;DHT22;19064;47.912;12.308;2023-03-05T14:22:51;4.20;99.90
32660;DHT22;19064;47.912;12.308;2023-03-05T14:25:30;4.10;99.90
32660;DHT22;19064;47.912;12.308;2023-03-05T14:28:00;4.10;99.90
32660;DHT22;19064;47.912;12.308;2023-03-05T14:30:33;4.00;99.90
32660;DHT22;19064;47.912;12.308;2023-03-05T14:33:01;4.00;99.90
32660;DHT22;19064;47.912;12.308;2023-03-05T14:35:30;3.90;99.90
32660;DHT22;19064;47.912;12.308;2023-03-05T14:38:01;3.90;99.90
32660;DHT22;19064;47.912;12.308;2023-03-05T14:40:29;3.90;99.90
32660;DHT22;19064;47.912;12.308;2023-03-05T14:42:56;3.80;99.90
32660;DHT22;19064;47.912;12.308;2023-03-05T14:45:23;3.90;99.90
32660;DHT22;19064;47.912;12.308;2023-03-05T14:47:52;3.90;99.90
32660;DHT22;19064;47.912;12.308;2023-03-05T14:50:21;3.90;99.90
32660;DHT22;19064;47.912;12.308;2023-03-05T14:52:53;3.90;99.90
32660;DHT22;19064;47.912;12.308;2023-03-05T14:55:23;4.00;99.90
32660;DHT22;19064;47.912;12.308;2023-03-05T14:57:54;3.90;99.90
32660;DHT22;19064;47.912;12.308;2023-03-05T15:00:25;3.90;99.90
32660;DHT22;19064;47.912;12.308;2023-03-05T15:02:53;3.80;99.90
32660;DHT22;19064;47.912;12.308;2023-03-05T15:05:21;3.70;99.90
32660;DHT22;19064;47.912;12.308;2023-03-05T15:07:49;3.70;99.90
32660;DHT22;19064;47.912;12.308;2023-03-05T15:10:23;3.70;99.90
32660;DHT22;19064;47.912;12.308;2023-03-05T15:12:54;3.60;99.90
32660;DHT22;19064;47.912;12.308;2023-03-05T15:15:24;3.60;99.90
32660;DHT22;19064;47.912;12.308;2023-03-05T15:17:51;3.70;99.90
32660;DHT22;19064;47.912;12.308;2023-03-05T15:20:24;3.70;99.90
32660;DHT22;19064;47.912;12.308;2023-03-05T15:22:52;3.70;99.90
32660;DHT22;19064;47.912;12.308;2023-03-05T15:25:21;3.60;99.90
32660;DHT22;19064;47.912;12.308;2023-03-05T15:27:52;3.60;99.90
32660;DHT22;19064;47.912;12.308;2023-03-05T15:30:29;3.60;99.90
32660;DHT22;19064;47.912;12.308;2023-03-05T15:32:58;3.70;99.90
32660;DHT22;19064;47.912;12.308;2023-03-05T15:35:27;3.60;99.90
32660;DHT22;19064;47.912;12.308;2023-03-05T15:37:55;3.50;99.90
32660;DHT22;19064;47.912;12.308;2023-03-05T15:40:27;3.50;99.90
32660;DHT22;19064;47.912;12.308;2023-03-05T15:42:55;3.50;99.90
32660;DHT22;19064;47.912;12.308;2023-03-05T15:45:24;3.50;99.90
32660;DHT22;19064;47.912;12.308;2023-03-05T15:47:52;3.40;99.90
32660;DHT22;19064;47.912;12.308;2023-03-05T15:50:21;3.40;99.90
32660;DHT22;19064;47.912;12.308;2023-03-05T15:52:49;3.40;99.90
32660;DHT22;19064;47.912;12.308;2023-03-05T15:55:17;3.40;99.90
32660;DHT22;19064;47.912;12.308;2023-03-05T15:57:47;3.50;99.90
32660;DHT22;19064;47.912;12.308;2023-03-05T16:00:16;3.40;99.90
32660;DHT22;19064;47.912;12.308;2023-03-05T16:02:44;3.40;99.90
32660;DHT22;19064;47.912;12.308;2023-03-05T16:05:11;3.40;99.90
32660;DHT22;19064;47.912;12.308;2023-03-05T16:07:40;3.40;99.90
32660;DHT22;19064;47.912;12.308;2023-03-05T16:10:10;3.40;99.90
32660;DHT22;19064;47.912;12.308;2023-03-05T16:12:39;3.40;99.90